Time;durP1;ratioP1;P1;durP2;ratioP2;P2;SDS_P1;SDS_P2;PMS_P1;PMS_P2;Temp;Humidity;BMP_temperature;BMP_pressure;BME280_temperature;BME280_humidity;BME280_pressure;Samples;Min_cycle;Max_cycle;Signal;HPM_P1;HPM_P2
2022/05/19 00:01:32;;;;;;;;;;;25.10;41.30;;;;;;1585705;75;776;-63
2022/05/19 00:03:35;;;;;;;;;;;25.10;41.30;;;;;;1565037;75;1672;-63
2022/05/19 00:05:37;;;;;;;;;;;25.10;41.30;;;;;;1559134;75;787;-64
2022/05/19 00:07:39;;;;;;;;;;;25.10;41.30;;;;;;1561231;75;807;-63
2022/05/19 00:09:41;;;;;;;;;;;25.10;41.40;;;;;;1570188;75;762;-64
2022/05/19 00:11:43;;;;;;;;;;;25.10;41.40;;;;;;1570540;75;767;-65
2022/05/19 00:13:44;;;;;;;;;;;25.10;41.40;;;;;;1579049;75;798;-64
2022/05/19 00:15:46;;;;;;;;;;;25.10;41.30;;;;;;1576528;75;1543;-65
2022/05/19 00:17:48;;;;;;;;;;;25.10;41.40;;;;;;1569231;75;1938;-66
2022/05/19 00:19:50;;;;;;;;;;;25.10;41.40;;;;;;1568455;75;773;-64
2022/05/19 00:21:52;;;;;;;;;;;25.10;41.40;;;;;;1573243;75;1133;-64
2022/05/19 00:23:54;;;;;;;;;;;25.10;41.50;;;;;;1567956;75;819;-64
2022/05/19 00:25:56;;;;;;;;;;;25.10;41.50;;;;;;1558574;76;789;-65
2022/05/19 00:27:58;;;;;;;;;;;25.10;41.50;;;;;;1557318;76;780;-66
2022/05/19 00:30:00;;;;;;;;;;;25.10;41.50;;;;;;1579909;75;1509;-65
2022/05/19 00:32:02;;;;;;;;;;;25.10;41.50;;;;;;1585590;74;1177;-65
2022/05/19 00:34:04;;;;;;;;;;;25.10;41.50;;;;;;1566600;75;770;-65
2022/05/19 00:36:12;;;;;;;;;;;25.10;41.50;;;;;;1564378;75;781;-62
2022/05/19 00:38:14;;;;;;;;;;;25.10;41.50;;;;;;1574556;75;759;-63
2022/05/19 00:40:17;;;;;;;;;;;25.10;41.50;;;;;;1569908;75;805;-63
2022/05/19 00:44:38;;;;;;;;;;;25.10;41.60;;;;;;1568585;75;1794;-64
2022/05/19 00:46:42;;;;;;;;;;;25.10;41.70;;;;;;1559343;74;756;-64
2022/05/19 00:48:50;;;;;;;;;;;25.00;41.70;;;;;;1580415;74;2309;-64
2022/05/19 00:51:00;;;;;;;;;;;25.00;41.70;;;;;;1557848;75;700;-62
2022/05/19 00:53:03;;;;;;;;;;;25.00;41.70;;;;;;1572459;75;1890;-63
2022/05/19 00:55:06;;;;;;;;;;;25.00;41.70;;;;;;1580102;75;789;-64
2022/05/19 00:57:09;;;;;;;;;;;25.00;41.70;;;;;;1585364;75;1929;-64
2022/05/19 00:59:12;;;;;;;;;;;25.00;41.70;;;;;;1578432;75;1682;-64
2022/05/19 01:01:14;;;;;;;;;;;25.00;41.80;;;;;;1557929;76;780;-65
2022/05/19 01:03:17;;;;;;;;;;;25.00;41.70;;;;;;1570568;75;1109;-64
2022/05/19 01:05:20;;;;;;;;;;;25.00;41.60;;;;;;1574032;75;743;-65
2022/05/19 01:07:23;;;;;;;;;;;25.10;41.70;;;;;;1575956;75;807;-64
2022/05/19 01:09:25;;;;;;;;;;;25.00;41.60;;;;;;1587233;75;1871;-66
2022/05/19 01:11:27;;;;;;;;;;;25.10;41.60;;;;;;1586996;75;1109;-65
2022/05/19 01:13:31;;;;;;;;;;;25.10;41.70;;;;;;1577025;74;1705;-66
2022/05/19 01:15:34;;;;;;;;;;;25.10;41.60;;;;;;1560670;75;793;-65
2022/05/19 01:17:36;;;;;;;;;;;25.10;41.70;;;;;;1570420;75;1911;-66
2022/05/19 01:19:39;;;;;;;;;;;25.10;41.80;;;;;;1572330;75;729;-66
2022/05/19 01:21:41;;;;;;;;;;;25.10;41.70;;;;;;1557232;76;737;-66
2022/05/19 01:23:44;;;;;;;;;;;25.00;41.70;;;;;;1578453;75;1095;-65
2022/05/19 01:25:48;;;;;;;;;;;25.00;41.70;;;;;;1571622;75;1926;-66
2022/05/19 01:27:49;;;;;;;;;;;25.10;41.70;;;;;;1566389;75;1741;-65
2022/05/19 01:29:51;;;;;;;;;;;25.00;41.70;;;;;;1553051;75;735;-64
2022/05/19 01:31:54;;;;;;;;;;;25.00;41.80;;;;;;1560770;74;1158;-65
2022/05/19 01:33:56;;;;;;;;;;;25.00;41.80;;;;;;1567971;75;716;-64
2022/05/19 01:35:58;;;;;;;;;;;25.00;41.70;;;;;;1557026;76;721;-64
2022/05/19 01:38:01;;;;;;;;;;;25.00;41.70;;;;;;1557199;76;1964;-64
2022/05/19 01:40:05;;;;;;;;;;;25.10;41.70;;;;;;1555863;76;1816;-66
2022/05/19 01:42:17;;;;;;;;;;;25.00;41.70;;;;;;1554865;74;1698;-64
2022/05/19 01:44:37;;;;;;;;;;;25.00;41.80;;;;;;1563161;75;774;-65
2022/05/19 01:46:39;;;;;;;;;;;25.00;41.70;;;;;;1567206;75;766;-66
2022/05/19 01:48:48;;;;;;;;;;;25.00;41.80;;;;;;1571724;75;674;-63
2022/05/19 01:51:07;;;;;;;;;;;25.00;41.80;;;;;;1560009;75;715;-65
2022/05/19 01:53:27;;;;;;;;;;;25.00;41.80;;;;;;1558568;75;1139;-64
2022/05/19 01:55:30;;;;;;;;;;;25.00;41.80;;;;;;1568668;75;1523;-65
2022/05/19 01:57:35;;;;;;;;;;;25.00;41.80;;;;;;1569547;75;1943;-65
2022/05/19 01:59:48;;;;;;;;;;;25.00;42.00;;;;;;1564921;75;546;-65
2022/05/19 02:01:52;;;;;;;;;;;25.00;42.00;;;;;;1576485;75;1954;-65
2022/05/19 02:04:01;;;;;;;;;;;25.00;42.00;;;;;;1577774;75;1819;-65
2022/05/19 02:06:07;;;;;;;;;;;25.00;42.00;;;;;;1585576;75;721;-64
2022/05/19 02:08:11;;;;;;;;;;;25.00;42.00;;;;;;1585513;75;1762;-64
2022/05/19 02:10:14;;;;;;;;;;;25.00;42.00;;;;;;1571144;75;1710;-65
2022/05/19 02:12:16;;;;;;;;;;;25.00;42.00;;;;;;1582162;73;1828;-64
2022/05/19 02:14:23;;;;;;;;;;;25.00;42.00;;;;;;1578652;75;751;-65
2022/05/19 02:16:24;;;;;;;;;;;25.00;42.00;;;;;;1579179;75;685;-65
2022/05/19 02:18:26;;;;;;;;;;;25.00;42.00;;;;;;1582462;75;1932;-65
2022/05/19 02:20:29;;;;;;;;;;;25.00;42.00;;;;;;1562435;76;755;-72
2022/05/19 02:22:50;;;;;;;;;;;25.00;41.90;;;;;;1577155;72;224848;-60
2022/05/19 02:24:53;;;;;;;;;;;25.00;42.00;;;;;;1515249;77;693;-58
2022/05/19 02:26:55;;;;;;;;;;;25.00;42.00;;;;;;1534018;77;1705;-58
2022/05/19 02:28:57;;;;;;;;;;;25.00;41.90;;;;;;1491115;77;679;-56
2022/05/19 02:30:59;;;;;;;;;;;25.00;42.00;;;;;;1489003;80;1178;-55
2022/05/19 02:33:01;;;;;;;;;;;24.90;42.00;;;;;;1504494;78;1019;-56
2022/05/19 02:35:04;;;;;;;;;;;24.90;42.10;;;;;;1513211;78;1052;-56
2022/05/19 02:37:06;;;;;;;;;;;24.90;42.10;;;;;;1511152;78;1942;-57
2022/05/19 02:39:08;;;;;;;;;;;24.90;42.10;;;;;;1516905;78;787;-58
2022/05/19 02:41:10;;;;;;;;;;;25.00;42.10;;;;;;1518580;77;1103;-55
2022/05/19 02:43:12;;;;;;;;;;;24.90;42.10;;;;;;1518479;78;682;-56
2022/05/19 02:45:14;;;;;;;;;;;25.00;42.10;;;;;;1518618;78;682;-57
2022/05/19 02:47:16;;;;;;;;;;;25.00;42.20;;;;;;1514079;78;750;-57
2022/05/19 02:49:18;;;;;;;;;;;25.00;42.10;;;;;;1512920;78;652;-56
2022/05/19 02:51:20;;;;;;;;;;;25.00;42.20;;;;;;1517216;78;1499;-57
2022/05/19 02:53:22;;;;;;;;;;;25.00;42.20;;;;;;1525771;77;710;-58
2022/05/19 02:55:24;;;;;;;;;;;24.90;42.20;;;;;;1526926;77;662;-59
2022/05/19 02:57:26;;;;;;;;;;;25.00;42.20;;;;;;1514345;77;1937;-56
2022/05/19 02:59:28;;;;;;;;;;;25.00;42.30;;;;;;1512961;78;839;-57
2022/05/19 03:01:29;;;;;;;;;;;25.00;42.30;;;;;;1512557;78;1058;-56
2022/05/19 03:03:32;;;;;;;;;;;25.00;42.40;;;;;;1512845;78;728;-57
2022/05/19 03:05:34;;;;;;;;;;;24.90;42.30;;;;;;1501921;78;1561;-58
2022/05/19 03:07:36;;;;;;;;;;;24.90;42.40;;;;;;1508831;78;728;-58
2022/05/19 03:09:38;;;;;;;;;;;25.00;42.40;;;;;;1505501;79;1062;-56
2022/05/19 03:11:40;;;;;;;;;;;25.00;42.40;;;;;;1511648;78;835;-58
2022/05/19 03:13:41;;;;;;;;;;;25.00;42.50;;;;;;1513303;78;792;-56
2022/05/19 03:15:43;;;;;;;;;;;24.90;42.50;;;;;;1500248;78;726;-57
2022/05/19 03:17:45;;;;;;;;;;;25.00;42.50;;;;;;1499860;78;1936;-57
2022/05/19 03:19:52;;;;;;;;;;;25.00;42.50;;;;;;1523644;77;1475;-55
2022/05/19 03:21:54;;;;;;;;;;;25.00;42.50;;;;;;1497901;78;801;-58
2022/05/19 03:23:56;;;;;;;;;;;25.00;42.60;;;;;;1486979;78;757;-57
2022/05/19 03:25:58;;;;;;;;;;;24.90;42.60;;;;;;1485578;79;720;-56
2022/05/19 03:28:00;;;;;;;;;;;25.00;42.60;;;;;;1500904;78;735;-57
2022/05/19 03:30:02;;;;;;;;;;;24.90;42.70;;;;;;1508821;78;1157;-58
2022/05/19 03:32:04;;;;;;;;;;;25.00;42.70;;;;;;1514535;78;732;-57
2022/05/19 03:34:06;;;;;;;;;;;25.00;42.70;;;;;;1507819;78;1515;-59
2022/05/19 03:36:12;;;;;;;;;;;25.00;42.70;;;;;;1489718;79;720;-58
2022/05/19 03:38:11;;;;;;;;;;;25.00;42.80;;;;;;1497622;79;1913;-56
2022/05/19 03:40:13;;;;;;;;;;;25.00;42.80;;;;;;1508492;78;1117;-56
2022/05/19 03:42:15;;;;;;;;;;;25.00;42.80;;;;;;1516136;78;801;-56
2022/05/19 03:44:17;;;;;;;;;;;25.00;42.80;;;;;;1516041;78;725;-56
2022/05/19 03:46:19;;;;;;;;;;;25.00;42.80;;;;;;1513521;78;709;-58
2022/05/19 03:48:21;;;;;;;;;;;24.90;42.80;;;;;;1510871;78;1577;-59
2022/05/19 03:50:23;;;;;;;;;;;25.00;42.90;;;;;;1508943;78;1130;-56
2022/05/19 03:52:25;;;;;;;;;;;25.00;42.80;;;;;;1513704;77;731;-56
2022/05/19 03:54:27;;;;;;;;;;;25.00;42.80;;;;;;1509666;77;812;-57
2022/05/19 03:56:29;;;;;;;;;;;25.00;42.90;;;;;;1508407;79;701;-56
2022/05/19 03:58:31;;;;;;;;;;;25.00;42.90;;;;;;1508412;79;1917;-57
2022/05/19 04:00:33;;;;;;;;;;;25.00;42.90;;;;;;1508272;78;1140;-55
2022/05/19 04:02:35;;;;;;;;;;;24.90;42.90;;;;;;1499863;78;1637;-56
2022/05/19 04:04:37;;;;;;;;;;;25.00;42.90;;;;;;1512029;78;722;-56
2022/05/19 04:06:39;;;;;;;;;;;25.00;42.80;;;;;;1515875;78;730;-58
2022/05/19 04:08:41;;;;;;;;;;;25.00;42.80;;;;;;1516135;78;713;-57
2022/05/19 04:10:44;;;;;;;;;;;25.00;42.90;;;;;;1513836;78;1143;-57
2022/05/19 04:12:46;;;;;;;;;;;25.00;42.90;;;;;;1486978;79;699;-56
2022/05/19 04:14:48;;;;;;;;;;;25.00;42.90;;;;;;1508181;77;735;-56
2022/05/19 04:16:52;;;;;;;;;;;25.00;42.90;;;;;;1502263;78;1636;-58
2022/05/19 04:18:54;;;;;;;;;;;25.00;43.00;;;;;;1508025;79;1929;-57
2022/05/19 04:20:56;;;;;;;;;;;25.00;42.90;;;;;;1508364;79;1157;-58
2022/05/19 04:22:58;;;;;;;;;;;24.90;42.90;;;;;;1508160;79;773;-57
2022/05/19 04:25:00;;;;;;;;;;;25.00;42.90;;;;;;1508288;77;750;-57
2022/05/19 04:27:03;;;;;;;;;;;25.00;42.90;;;;;;1508108;77;746;-55
2022/05/19 04:29:05;;;;;;;;;;;24.90;42.90;;;;;;1505931;79;1599;-57
2022/05/19 04:31:07;;;;;;;;;;;25.00;42.90;;;;;;1494952;78;1130;-57
2022/05/19 04:33:09;;;;;;;;;;;25.00;42.90;;;;;;1495483;78;720;-57
2022/05/19 04:35:11;;;;;;;;;;;25.00;42.90;;;;;;1509159;78;746;-57
2022/05/19 04:37:13;;;;;;;;;;;24.90;43.00;;;;;;1503754;78;671;-57
2022/05/19 04:39:15;;;;;;;;;;;25.00;43.00;;;;;;1509874;78;1935;-58
2022/05/19 04:41:17;;;;;;;;;;;25.00;43.10;;;;;;1502124;78;1137;-57
2022/05/19 04:43:23;;;;;;;;;;;25.00;43.10;;;;;;1507150;78;1328;-57
2022/05/19 04:45:23;;;;;;;;;;;24.90;43.10;;;;;;1499942;78;1565;-56
2022/05/19 04:47:25;;;;;;;;;;;25.00;43.10;;;;;;1511695;78;713;-55
2022/05/19 04:49:27;;;;;;;;;;;24.90;43.10;;;;;;1503012;78;719;-56
2022/05/19 04:51:28;;;;;;;;;;;25.00;43.20;;;;;;1501775;78;1042;-57
2022/05/19 04:53:30;;;;;;;;;;;24.90;43.20;;;;;;1488373;78;778;-57
2022/05/19 04:55:34;;;;;;;;;;;24.90;43.10;;;;;;1501147;78;727;-56
2022/05/19 04:57:36;;;;;;;;;;;24.90;43.20;;;;;;1503740;77;1445;-57
2022/05/19 04:59:41;;;;;;;;;;;25.00;43.20;;;;;;1503684;77;1953;-55
2022/05/19 05:01:44;;;;;;;;;;;24.90;43.20;;;;;;1496285;77;688;-56
2022/05/19 05:03:46;;;;;;;;;;;24.90;43.20;;;;;;1507089;77;735;-55
2022/05/19 05:05:48;;;;;;;;;;;25.00;43.20;;;;;;1499898;77;671;-56
2022/05/19 05:07:49;;;;;;;;;;;25.00;43.20;;;;;;1499838;77;701;-55
2022/05/19 05:09:51;;;;;;;;;;;25.00;43.20;;;;;;1497949;77;1129;-56
2022/05/19 05:11:53;;;;;;;;;;;24.90;43.10;;;;;;1495267;77;1566;-57
2022/05/19 05:13:55;;;;;;;;;;;24.90;43.10;;;;;;1488756;77;750;-57
2022/05/19 05:15:58;;;;;;;;;;;25.00;43.10;;;;;;1498198;77;694;-56
2022/05/19 05:18:00;;;;;;;;;;;25.00;43.10;;;;;;1499402;77;1931;-57
2022/05/19 05:20:02;;;;;;;;;;;25.00;43.20;;;;;;1502437;78;1106;-55
2022/05/19 05:22:04;;;;;;;;;;;25.00;43.30;;;;;;1505679;77;742;-56
2022/05/19 05:24:06;;;;;;;;;;;25.00;43.40;;;;;;1500647;77;713;-57
2022/05/19 05:26:08;;;;;;;;;;;25.00;43.40;;;;;;1496905;77;1450;-56
2022/05/19 05:28:10;;;;;;;;;;;25.00;43.40;;;;;;1494798;77;690;-56
2022/05/19 05:30:12;;;;;;;;;;;25.00;43.40;;;;;;1496683;77;1134;-57
2022/05/19 05:32:14;;;;;;;;;;;25.00;43.50;;;;;;1487253;77;785;-56
2022/05/19 05:34:16;;;;;;;;;;;25.00;43.50;;;;;;1503688;77;771;-58
2022/05/19 05:36:18;;;;;;;;;;;25.00;43.50;;;;;;1497478;77;742;-55
2022/05/19 05:38:20;;;;;;;;;;;24.90;43.60;;;;;;1499789;77;1921;-56
2022/05/19 05:40:22;;;;;;;;;;;25.00;43.60;;;;;;1500110;77;1462;-57
2022/05/19 05:42:24;;;;;;;;;;;25.00;43.60;;;;;;1490414;77;709;-55
2022/05/19 05:44:26;;;;;;;;;;;25.00;43.60;;;;;;1504946;77;781;-56
2022/05/19 05:46:28;;;;;;;;;;;25.00;43.50;;;;;;1497621;77;775;-57
2022/05/19 05:48:29;;;;;;;;;;;25.00;43.50;;;;;;1505410;77;817;-56
2022/05/19 05:50:31;;;;;;;;;;;25.00;43.60;;;;;;1493885;77;1130;-57
2022/05/19 05:52:33;;;;;;;;;;;25.00;43.40;;;;;;1494020;77;791;-55
2022/05/19 05:54:35;;;;;;;;;;;25.00;43.50;;;;;;1499186;77;1546;-57
2022/05/19 05:56:37;;;;;;;;;;;24.90;43.60;;;;;;1496323;77;743;-56
2022/05/19 05:58:39;;;;;;;;;;;25.00;43.50;;;;;;1503294;77;1950;-56
2022/05/19 06:00:42;;;;;;;;;;;25.00;43.60;;;;;;1505221;77;1119;-56
2022/05/19 06:02:43;;;;;;;;;;;25.10;43.40;;;;;;1498188;77;691;-56
2022/05/19 06:04:46;;;;;;;;;;;25.20;43.20;;;;;;1493799;77;772;-56
2022/05/19 06:06:48;;;;;;;;;;;25.20;43.10;;;;;;1492225;77;758;-56
2022/05/19 06:08:49;;;;;;;;;;;25.10;43.00;;;;;;1493488;77;1460;-56
2022/05/19 06:10:52;;;;;;;;;;;25.10;43.00;;;;;;1497212;77;1127;-56
2022/05/19 06:12:53;;;;;;;;;;;25.10;43.00;;;;;;1497729;77;748;-57
2022/05/19 06:14:56;;;;;;;;;;;25.10;42.90;;;;;;1497058;77;736;-57
2022/05/19 06:16:58;;;;;;;;;;;25.10;42.90;;;;;;1505559;77;732;-58
2022/05/19 06:19:00;;;;;;;;;;;25.00;42.80;;;;;;1502842;77;1941;-59
2022/05/19 06:21:03;;;;;;;;;;;25.00;42.70;;;;;;1501455;77;1139;-59
2022/05/19 06:23:04;;;;;;;;;;;25.00;42.70;;;;;;1506972;77;1482;-57
2022/05/19 06:25:07;;;;;;;;;;;25.00;42.70;;;;;;1507110;78;798;-57
2022/05/19 06:27:09;;;;;;;;;;;25.00;42.60;;;;;;1496209;77;774;-57
2022/05/19 06:29:12;;;;;;;;;;;25.00;42.60;;;;;;1492383;79;716;-57
2022/05/19 06:31:14;;;;;;;;;;;25.00;42.60;;;;;;1493083;77;1092;-56
2022/05/19 06:33:18;;;;;;;;;;;25.00;42.50;;;;;;1491626;77;700;-58
2022/05/19 06:35:21;;;;;;;;;;;25.00;42.50;;;;;;1506535;78;751;-57
2022/05/19 06:37:22;;;;;;;;;;;25.00;42.40;;;;;;1498568;78;1707;-57
2022/05/19 06:39:24;;;;;;;;;;;25.00;42.40;;;;;;1515738;78;1957;-57
2022/05/19 06:43:47;;;;;;;;;;;24.90;42.30;;;;;;1483633;79;1651;-57
2022/05/19 06:45:49;;;;;;;;;;;25.00;42.30;;;;;;1499260;78;789;-57
2022/05/19 06:47:51;;;;;;;;;;;24.90;42.30;;;;;;1506542;78;851;-57
2022/05/19 06:49:55;;;;;;;;;;;25.00;42.30;;;;;;1507448;78;1436;-57
2022/05/19 06:51:57;;;;;;;;;;;25.00;42.30;;;;;;1504976;79;725;-57
2022/05/19 06:53:59;;;;;;;;;;;24.90;42.30;;;;;;1484081;80;793;-58
2022/05/19 06:56:00;;;;;;;;;;;25.00;42.20;;;;;;1483988;80;806;-57
2022/05/19 06:58:02;;;;;;;;;;;25.00;42.20;;;;;;1488265;77;826;-58
2022/05/19 07:00:05;;;;;;;;;;;24.90;42.10;;;;;;1505540;77;1938;-59
2022/05/19 07:02:07;;;;;;;;;;;24.90;42.10;;;;;;1512278;78;775;-57
2022/05/19 07:04:09;;;;;;;;;;;24.90;42.10;;;;;;1510862;77;1471;-57
2022/05/19 07:06:11;;;;;;;;;;;24.90;42.10;;;;;;1519834;77;709;-57
2022/05/19 07:08:13;;;;;;;;;;;24.90;42.20;;;;;;1516184;78;703;-57
2022/05/19 07:10:16;;;;;;;;;;;24.90;42.20;;;;;;1525405;77;1072;-57
2022/05/19 07:12:24;;;;;;;;;;;24.90;42.10;;;;;;1523144;77;702;-59
2022/05/19 07:14:26;;;;;;;;;;;24.90;42.10;;;;;;1506628;78;708;-57
2022/05/19 07:16:29;;;;;;;;;;;24.80;42.00;;;;;;1515557;78;720;-57
2022/05/19 07:18:31;;;;;;;;;;;24.90;42.10;;;;;;1510845;78;1605;-57
2022/05/19 07:20:46;;;;;;;;;;;24.90;42.10;;;;;;1498490;78;1940;-57
2022/05/19 07:22:49;;;;;;;;;;;25.00;42.10;;;;;;1508435;79;703;-57
2022/05/19 07:24:51;;;;;;;;;;;24.90;42.10;;;;;;1508425;79;718;-57
2022/05/19 07:26:54;;;;;;;;;;;24.90;42.00;;;;;;1498631;77;821;-58
2022/05/19 07:28:56;;;;;;;;;;;24.90;41.90;;;;;;1502088;78;732;-57
2022/05/19 07:30:58;;;;;;;;;;;24.80;41.80;;;;;;1505301;79;1126;-57
2022/05/19 07:33:00;;;;;;;;;;;24.90;42.00;;;;;;1493181;77;1487;-57
2022/05/19 07:35:03;;;;;;;;;;;25.00;41.80;;;;;;1504677;77;796;-57
2022/05/19 07:37:05;;;;;;;;;;;25.00;41.80;;;;;;1498664;77;715;-57
2022/05/19 07:39:07;;;;;;;;;;;25.00;41.80;;;;;;1496064;77;1934;-57
2022/05/19 07:41:08;;;;;;;;;;;25.00;41.80;;;;;;1497362;78;1120;-57
2022/05/19 07:45:30;;;;;;;;;;;25.00;41.70;;;;;;1475650;79;1683;-57
2022/05/19 07:47:32;;;;;;;;;;;25.00;41.80;;;;;;1475847;79;1459;-57
2022/05/19 07:49:34;;;;;;;;;;;25.00;41.70;;;;;;1467646;79;737;-57
2022/05/19 07:51:39;;;;;;;;;;;25.00;41.70;;;;;;1454342;80;1122;-59
2022/05/19 07:53:41;;;;;;;;;;;25.00;41.70;;;;;;1453913;80;697;-57
2022/05/19 07:55:42;;;;;;;;;;;25.00;41.60;;;;;;1478481;78;736;-56
2022/05/19 07:57:44;;;;;;;;;;;25.10;41.60;;;;;;1472563;79;652;-57
2022/05/19 07:59:46;;;;;;;;;;;25.10;41.50;;;;;;1489340;77;1935;-57
2022/05/19 08:01:48;;;;;;;;;;;25.10;41.40;;;;;;1502945;78;1661;-57
2022/05/19 08:03:50;;;;;;;;;;;25.10;41.40;;;;;;1499634;78;812;-57
2022/05/19 08:05:52;;;;;;;;;;;25.10;41.30;;;;;;1482813;79;795;-57
2022/05/19 08:07:54;;;;;;;;;;;25.10;41.40;;;;;;1489360;79;704;-57
2022/05/19 08:15:34;;;;;;;;;;;25.10;41.40;;;;;;1491147;79;1663;-57
2022/05/19 08:16:44;;;;;;;;;;;25.10;41.30;;;;;;1477852;79;1679;-57
2022/05/19 08:18:46;;;;;;;;;;;25.10;41.40;;;;;;1487841;79;1088;-57
2022/05/19 08:20:49;;;;;;;;;;;25.10;41.30;;;;;;1484587;79;1930;-57
2022/05/19 08:24:51;;;;;;;;;;;25.10;41.30;;;;;;1572580;72;223922;-66
2022/05/19 08:26:53;;;;;;;;;;;25.10;41.30;;;;;;1588529;74;780;-67
2022/05/19 08:28:55;;;;;;;;;;;25.20;41.30;;;;;;1587693;74;1615;-66
2022/05/19 08:30:58;;;;;;;;;;;25.30;41.30;;;;;;1582597;74;768;-66
2022/05/19 08:33:00;;;;;;;;;;;25.20;41.30;;;;;;1584943;74;770;-67
2022/05/19 08:35:02;;;;;;;;;;;25.20;41.30;;;;;;1576881;75;1177;-66
2022/05/19 08:37:04;;;;;;;;;;;25.30;41.30;;;;;;1550331;76;801;-67
2022/05/19 08:39:06;;;;;;;;;;;25.30;41.20;;;;;;1579046;74;1966;-67
2022/05/19 08:41:09;;;;;;;;;;;25.30;41.20;;;;;;1574458;75;807;-66
2022/05/19 08:43:12;;;;;;;;;;;25.30;41.20;;;;;;1575552;74;1913;-68
2022/05/19 08:45:16;;;;;;;;;;;25.30;41.30;;;;;;1571542;75;717;-67
2022/05/19 08:47:20;;;;;;;;;;;25.30;41.30;;;;;;1574123;74;1812;-66
2022/05/19 08:49:30;;;;;;;;;;;25.30;41.30;;;;;;1571559;74;935;-66
2022/05/19 08:51:33;;;;;;;;;;;25.20;41.30;;;;;;1570159;74;2227;-66
2022/05/19 08:53:36;;;;;;;;;;;25.20;41.40;;;;;;1569947;74;1139;-66
2022/05/19 08:55:42;;;;;;;;;;;25.30;41.40;;;;;;1570381;75;716;-68
2022/05/19 08:57:48;;;;;;;;;;;25.30;41.30;;;;;;1578242;75;1542;-66
2022/05/19 08:59:58;;;;;;;;;;;25.30;41.30;;;;;;1573962;75;1934;-66
2022/05/19 09:02:04;;;;;;;;;;;25.30;41.40;;;;;;1571667;75;722;-66
2022/05/19 09:04:14;;;;;;;;;;;25.30;41.30;;;;;;1573602;74;1111;-67
2022/05/19 09:06:17;;;;;;;;;;;25.30;41.40;;;;;;1577053;74;1529;-67
2022/05/19 09:08:27;;;;;;;;;;;25.40;41.60;;;;;;1571213;74;712;-70
2022/05/19 09:10:33;;;;;;;;;;;25.50;41.50;;;;;;1570386;74;1539;-64
2022/05/19 09:12:36;;;;;;;;;;;25.30;42.00;;;;;;1575838;75;1017;-67
2022/05/19 09:14:39;;;;;;;;;;;25.30;42.20;;;;;;1579565;74;1115;-66
2022/05/19 09:16:42;;;;;;;;;;;25.40;42.80;;;;;;1563253;75;653;-67
2022/05/19 09:18:46;;;;;;;;;;;25.30;42.60;;;;;;1571752;75;773;-67
2022/05/19 09:20:49;;;;;;;;;;;25.50;42.20;;;;;;1578593;74;1933;-65
2022/05/19 09:22:52;;;;;;;;;;;25.70;41.90;;;;;;1576817;75;874;-66
2022/05/19 09:24:54;;;;;;;;;;;25.70;41.60;;;;;;1571056;74;1485;-65
2022/05/19 09:26:57;;;;;;;;;;;25.90;41.40;;;;;;1573148;74;723;-66
2022/05/19 09:29:01;;;;;;;;;;;25.80;41.30;;;;;;1570488;74;793;-71
2022/05/19 09:31:03;;;;;;;;;;;25.90;41.30;;;;;;1568682;75;720;-67
2022/05/19 09:33:09;;;;;;;;;;;25.90;41.10;;;;;;1575875;75;685;-67
2022/05/19 09:35:22;;;;;;;;;;;25.90;41.10;;;;;;1565079;75;1741;-67
2022/05/19 09:37:42;;;;;;;;;;;25.90;41.00;;;;;;1581845;74;1859;-69
2022/05/19 09:39:45;;;;;;;;;;;25.90;41.00;;;;;;1566745;75;1934;-67
2022/05/19 09:41:48;;;;;;;;;;;25.90;41.00;;;;;;1573323;74;755;-66
2022/05/19 09:43:52;;;;;;;;;;;25.90;41.00;;;;;;1570844;74;1384;-69
2022/05/19 09:45:55;;;;;;;;;;;25.90;41.00;;;;;;1571631;75;729;-67
2022/05/19 09:47:58;;;;;;;;;;;25.90;41.00;;;;;;1570910;75;1807;-67
2022/05/19 09:50:14;;;;;;;;;;;25.90;41.00;;;;;;1571452;75;709;-67
2022/05/19 09:52:21;;;;;;;;;;;25.90;41.00;;;;;;1570889;75;916;-67
2022/05/19 09:54:23;;;;;;;;;;;25.90;41.00;;;;;;1577344;75;1076;-67
2022/05/19 09:56:25;;;;;;;;;;;25.90;41.00;;;;;;1590273;74;663;-67
2022/05/19 09:58:28;;;;;;;;;;;25.90;40.90;;;;;;1587344;75;830;-67
2022/05/19 10:00:34;;;;;;;;;;;25.90;40.80;;;;;;1563503;75;1944;-68
2022/05/19 10:02:38;;;;;;;;;;;25.90;40.80;;;;;;1562174;75;2077;-66
2022/05/19 10:04:42;;;;;;;;;;;25.90;40.70;;;;;;1574503;73;1165;-65
2022/05/19 10:06:54;;;;;;;;;;;25.90;40.80;;;;;;1540764;76;1559;-67
2022/05/19 10:09:01;;;;;;;;;;;25.80;40.90;;;;;;1585546;74;721;-68
2022/05/19 10:11:04;;;;;;;;;;;25.90;40.80;;;;;;1570776;75;1091;-67
2022/05/19 10:13:10;;;;;;;;;;;25.90;40.80;;;;;;1571481;75;733;-67
2022/05/19 10:15:14;;;;;;;;;;;25.80;40.80;;;;;;1578681;74;646;-67
2022/05/19 10:17:17;;;;;;;;;;;25.80;40.90;;;;;;1571662;74;780;-67
2022/05/19 10:19:27;;;;;;;;;;;25.80;40.90;;;;;;1569158;75;2092;-68
2022/05/19 10:21:47;;;;;;;;;;;25.90;41.00;;;;;;1567376;74;1943;-67
2022/05/19 10:23:58;;;;;;;;;;;25.70;41.00;;;;;;1571676;74;1178;-67
2022/05/19 10:26:04;;;;;;;;;;;25.80;41.10;;;;;;1574121;74;877;-68
2022/05/19 10:31:03;;;;;;;;;;;25.70;41.10;;;;;;1570422;74;1689;-68
2022/05/19 10:33:13;;;;;;;;;;;25.70;41.10;;;;;;1570245;74;799;-68
2022/05/19 10:35:16;;;;;;;;;;;25.70;41.20;;;;;;1571505;75;1822;-68
2022/05/19 10:37:20;;;;;;;;;;;25.70;41.30;;;;;;1571612;75;696;-67
2022/05/19 10:39:23;;;;;;;;;;;25.70;41.20;;;;;;1590327;75;654;-67
2022/05/19 10:41:34;;;;;;;;;;;25.70;41.30;;;;;;1591090;75;1933;-65
2022/05/19 10:43:35;;;;;;;;;;;25.80;41.30;;;;;;1574283;74;1570;-68
2022/05/19 10:45:40;;;;;;;;;;;25.70;41.30;;;;;;1544305;76;994;-67
2022/05/19 10:48:02;;;;;;;;;;;25.70;41.30;;;;;;1559101;75;712;-67
2022/05/19 10:50:22;;;;;;;;;;;25.70;41.30;;;;;;1580914;75;1438;-68
2022/05/19 10:52:33;;;;;;;;;;;25.70;41.30;;;;;;1580285;74;746;-68
2022/05/19 10:54:36;;;;;;;;;;;25.70;41.20;;;;;;1571477;74;1145;-67
2022/05/19 10:56:58;;;;;;;;;;;25.70;41.20;;;;;;1569065;74;1537;-68
2022/05/19 10:59:18;;;;;;;;;;;25.70;41.20;;;;;;1568405;75;1519;-68
2022/05/19 11:01:27;;;;;;;;;;;25.60;41.30;;;;;;1565402;75;1919;-68
2022/05/19 11:03:34;;;;;;;;;;;25.80;41.30;;;;;;1569988;74;1492;-66
2022/05/19 11:05:50;;;;;;;;;;;25.80;41.20;;;;;;1571730;74;1047;-67
2022/05/19 11:07:54;;;;;;;;;;;25.90;41.10;;;;;;1569382;74;1946;-67
2022/05/19 11:10:00;;;;;;;;;;;25.80;41.10;;;;;;1575812;74;1780;-67
2022/05/19 11:12:13;;;;;;;;;;;25.90;41.20;;;;;;1570041;74;791;-68
2022/05/19 11:14:22;;;;;;;;;;;26.10;41.70;;;;;;1573608;74;1146;-68
2022/05/19 11:16:26;;;;;;;;;;;26.00;41.70;;;;;;1574563;75;783;-67
2022/05/19 11:18:33;;;;;;;;;;;26.10;41.70;;;;;;1582872;74;1638;-68
2022/05/19 11:20:36;;;;;;;;;;;26.10;41.60;;;;;;1570071;75;1938;-66
2022/05/19 11:22:39;;;;;;;;;;;26.10;41.70;;;;;;1571633;75;1885;-68
2022/05/19 11:26:23;;;;;;;;;;;26.20;41.60;;;;;;1571333;74;1146;-65
2022/05/19 11:26:51;;;;;;;;;;;26.20;41.60;;;;;;1566595;74;1444;-65
2022/05/19 11:28:54;;;;;;;;;;;26.20;41.70;;;;;;1551145;75;1800;-68
2022/05/19 11:30:58;;;;;;;;;;;26.20;41.90;;;;;;1568620;74;1640;-68
2022/05/19 11:33:00;;;;;;;;;;;26.10;42.30;;;;;;1563397;74;734;-66
2022/05/19 11:35:04;;;;;;;;;;;26.10;42.70;;;;;;1569353;74;1093;-68
2022/05/19 11:37:25;;;;;;;;;;;26.10;42.50;;;;;;1571498;74;674;-67
2022/05/19 11:39:35;;;;;;;;;;;26.10;42.40;;;;;;1578773;74;784;-68
2022/05/19 11:41:36;;;;;;;;;;;26.00;42.80;;;;;;1571633;74;1926;-64
2022/05/19 11:43:57;;;;;;;;;;;26.00;43.00;;;;;;1568263;74;1158;-68
2022/05/19 11:46:05;;;;;;;;;;;26.00;42.80;;;;;;1571037;74;1541;-71
2022/05/19 11:55:31;;;;;;;;;;;26.00;43.00;;;;;;1573740;74;1604;-69
2022/05/19 11:57:33;;;;;;;;;;;26.10;43.40;;;;;;1568865;74;720;-68
2022/05/19 11:59:36;;;;;;;;;;;26.10;42.90;;;;;;1571129;74;1535;-67
2022/05/19 12:01:39;;;;;;;;;;;26.10;43.10;;;;;;1571281;74;1918;-71
2022/05/19 12:03:49;;;;;;;;;;;26.10;43.40;;;;;;1566248;74;1803;-66
2022/05/19 12:06:04;;;;;;;;;;;26.00;43.20;;;;;;1560406;74;1698;-66
2022/05/19 12:08:24;;;;;;;;;;;26.10;43.00;;;;;;1573559;74;971;-67
2022/05/19 12:10:28;;;;;;;;;;;26.10;42.50;;;;;;1572792;74;850;-67
2022/05/19 12:12:34;;;;;;;;;;;26.10;42.40;;;;;;1568222;74;995;-68
2022/05/19 12:14:40;;;;;;;;;;;26.10;42.30;;;;;;1571238;74;1569;-67
2022/05/19 12:16:46;;;;;;;;;;;26.00;42.30;;;;;;1569410;74;735;-67
2022/05/19 12:19:02;;;;;;;;;;;26.10;42.30;;;;;;1574080;74;686;-66
2022/05/19 12:21:05;;;;;;;;;;;26.10;42.30;;;;;;1569234;74;1906;-66
2022/05/19 12:23:11;;;;;;;;;;;26.00;42.30;;;;;;1570792;74;775;-67
2022/05/19 12:25:16;;;;;;;;;;;26.00;42.20;;;;;;1570256;74;1215;-67
2022/05/19 12:27:20;;;;;;;;;;;26.00;42.30;;;;;;1571707;75;1517;-65
2022/05/19 12:29:40;;;;;;;;;;;25.90;41.70;;;;;;1574645;74;2072;-68
2022/05/19 12:31:59;;;;;;;;;;;25.90;41.60;;;;;;1567809;75;685;-67
2022/05/19 12:34:01;;;;;;;;;;;25.90;41.60;;;;;;1570676;74;1176;-67
2022/05/19 12:36:07;;;;;;;;;;;25.90;41.60;;;;;;1587908;75;764;-66
2022/05/19 12:38:27;;;;;;;;;;;25.90;41.60;;;;;;1579699;75;690;-66
2022/05/19 12:40:30;;;;;;;;;;;25.90;41.60;;;;;;1564818;75;1927;-67
2022/05/19 12:42:39;;;;;;;;;;;25.90;41.50;;;;;;1566678;75;1595;-66